createdAt,value
2018-02-23T00:02:26.172Z,59.70
2018-02-23T00:04:55.159Z,59.70
2018-02-23T00:07:24.705Z,59.70
2018-02-23T00:09:53.856Z,59.70
2018-02-23T00:12:23.296Z,59.60
2018-02-23T00:14:53.164Z,59.90
2018-02-23T00:17:22.595Z,59.90
2018-02-23T00:19:51.715Z,60.10
2018-02-23T00:22:20.624Z,60.40
2018-02-23T00:24:50.327Z,60.40
2018-02-23T00:27:19.752Z,60.40
2018-02-23T00:29:49.184Z,60.50
2018-02-23T00:32:18.592Z,60.70
2018-02-23T00:34:48.008Z,60.80
2018-02-23T00:37:17.431Z,60.90
2018-02-23T00:39:46.858Z,60.70
2018-02-23T00:42:16.081Z,60.90
2018-02-23T00:44:46.239Z,61.00
2018-02-23T00:47:15.656Z,61.00
2018-02-23T00:49:45.056Z,60.90
2018-02-23T00:52:14.464Z,60.80
2018-02-23T00:54:44.651Z,61.00
2018-02-23T00:57:14.072Z,60.90
2018-02-23T00:59:43.491Z,60.80
2018-02-23T01:02:12.892Z,60.90
2018-02-23T01:04:42.818Z,61.40
2018-02-23T01:07:12.212Z,60.80
2018-02-23T01:09:41.613Z,61.00
2018-02-23T01:12:11.037Z,61.10
2018-02-23T01:14:40.454Z,61.10
2018-02-23T01:17:09.851Z,61.10
2018-02-23T01:19:39.272Z,61.20
2018-02-23T01:22:08.676Z,61.20
2018-02-23T01:24:38.091Z,61.20
2018-02-23T01:27:08.282Z,61.40
2018-02-23T01:29:37.689Z,61.30
2018-02-23T01:32:07.120Z,61.20
2018-02-23T01:34:36.345Z,61.40
2018-02-23T01:37:05.754Z,61.10
2018-02-23T01:39:35.166Z,61.20
2018-02-23T01:42:04.770Z,61.10
2018-02-23T01:44:34.180Z,61.10
2018-02-23T01:47:03.117Z,61.10
2018-02-23T01:49:32.534Z,61.20
2018-02-23T01:52:01.940Z,61.10
2018-02-23T01:54:31.352Z,61.90
2018-02-23T01:57:00.767Z,61.00
2018-02-23T01:59:30.173Z,61.00
2018-02-23T02:01:59.584Z,61.00
2018-02-23T02:04:29.007Z,61.10
2018-02-23T02:06:58.896Z,61.40
2018-02-23T02:09:28.060Z,61.40
2018-02-23T02:11:57.465Z,61.40
2018-02-23T02:14:27.032Z,61.40
2018-02-23T02:16:56.442Z,61.40
2018-02-23T02:19:25.591Z,61.40
2018-02-23T02:21:54.717Z,61.70
2018-02-23T02:24:24.142Z,61.40
2018-02-23T02:26:53.565Z,61.40
2018-02-23T02:29:23.752Z,61.60
2018-02-23T02:31:53.158Z,61.60
2018-02-23T02:34:22.389Z,61.70
2018-02-23T02:36:51.611Z,61.80
2018-02-23T02:39:21.241Z,61.80
2018-02-23T02:41:50.489Z,61.90
2018-02-23T02:44:20.460Z,62.30
2018-02-23T02:46:49.921Z,62.30
2018-02-23T02:49:19.524Z,62.30
2018-02-23T02:51:48.954Z,62.10
2018-02-23T02:54:19.126Z,62.20
2018-02-23T02:56:48.556Z,62.20
2018-02-23T02:59:17.959Z,62.10
2018-02-23T03:01:47.368Z,62.10
2018-02-23T03:04:16.762Z,62.10
2018-02-23T03:06:46.177Z,62.10
2018-02-23T03:09:15.578Z,62.20
2018-02-23T03:11:44.982Z,62.00
2018-02-23T03:14:15.160Z,62.10
2018-02-23T03:16:44.369Z,62.10
2018-02-23T03:19:13.755Z,62.20
2018-02-23T03:21:43.198Z,62.20
2018-02-23T03:24:12.588Z,62.20
2018-02-23T03:26:41.987Z,62.30
2018-02-23T03:29:12.159Z,62.30
2018-02-23T03:31:41.584Z,62.30
2018-02-23T03:34:10.997Z,62.40
2018-02-23T03:36:40.419Z,62.40
2018-02-23T03:39:09.822Z,62.40
2018-02-23T03:41:38.969Z,62.50
2018-02-23T03:44:08.092Z,62.70
2018-02-23T03:46:38.348Z,63.00
2018-02-23T03:49:07.760Z,62.90
2018-02-23T03:51:36.900Z,63.10
2018-02-23T03:54:06.041Z,63.20
2018-02-23T03:56:35.110Z,63.10
2018-02-23T03:59:05.292Z,63.10
2018-02-23T04:01:34.681Z,63.00
2018-02-23T04:04:04.090Z,63.10
2018-02-23T04:06:33.494Z,63.20
2018-02-23T04:09:02.620Z,63.20
2018-02-23T04:11:31.754Z,63.50
2018-02-23T04:14:01.151Z,63.70
2018-02-23T04:16:30.572Z,63.80
2018-02-23T04:18:59.999Z,64.00
2018-02-23T04:21:29.404Z,64.10
2018-02-23T04:23:58.816Z,64.30
2018-02-23T04:26:28.230Z,64.50
2018-02-23T04:28:57.363Z,64.60
2018-02-23T04:31:26.497Z,64.60
2018-02-23T04:33:55.912Z,64.70
2018-02-23T04:36:25.316Z,64.70
2018-02-23T04:38:54.731Z,64.70
2018-02-23T04:41:24.345Z,64.60
2018-02-23T04:43:53.753Z,64.70
2018-02-23T04:46:23.189Z,64.70
2018-02-23T04:48:53.116Z,64.80
2018-02-23T04:51:23.039Z,64.90
2018-02-23T04:53:52.440Z,64.90
2018-02-23T04:56:21.863Z,64.80
2018-02-23T04:58:50.950Z,65.10
2018-02-23T05:01:20.427Z,65.20
2018-02-23T05:03:50.652Z,65.60
2018-02-23T05:06:20.085Z,65.60
2018-02-23T05:08:50.278Z,65.80
2018-02-23T05:11:19.694Z,65.90
2018-02-23T05:13:48.909Z,65.90
2018-02-23T05:16:18.651Z,66.00
2018-02-23T05:18:47.875Z,66.00
2018-02-23T05:21:17.026Z,66.10
2018-02-23T05:23:46.427Z,66.00
2018-02-23T05:26:16.022Z,65.70
2018-02-23T05:28:45.996Z,65.00
2018-02-23T05:31:15.219Z,65.10
2018-02-23T05:33:44.645Z,64.80
2018-02-23T05:36:14.058Z,64.50
2018-02-23T05:38:43.476Z,64.30
2018-02-23T05:41:13.028Z,64.50
2018-02-23T05:43:43.212Z,64.40
2018-02-23T05:46:12.619Z,64.30
2018-02-23T05:48:42.041Z,64.20
2018-02-23T05:51:11.440Z,64.50
2018-02-23T05:53:40.859Z,64.40
2018-02-23T05:56:10.260Z,64.60
2018-02-23T05:58:39.670Z,64.60
2018-02-23T06:01:08.817Z,64.60
2018-02-23T06:03:38.037Z,64.60
2018-02-23T06:06:07.452Z,64.60
2018-02-23T06:08:36.852Z,64.70
2018-02-23T06:11:06.335Z,64.90
2018-02-23T06:13:35.886Z,64.80
2018-02-23T06:16:10.737Z,65.00
2018-02-23T06:18:45.653Z,65.00
2018-02-23T06:21:15.035Z,64.90
2018-02-23T06:23:44.458Z,64.90
2018-02-23T06:26:13.876Z,64.80
2018-02-23T06:28:43.416Z,65.00
2018-02-23T06:31:12.807Z,65.10
2018-02-23T06:33:42.224Z,65.80
2018-02-23T06:36:11.661Z,65.10
2018-02-23T06:38:41.088Z,65.00
2018-02-23T06:41:10.509Z,65.20
2018-02-23T06:43:39.929Z,65.10
2018-02-23T06:46:09.339Z,65.40
2018-02-23T06:48:38.767Z,65.30
2018-02-23T06:51:08.193Z,65.40
2018-02-23T06:53:37.667Z,65.50
2018-02-23T06:56:06.789Z,65.50
2018-02-23T06:58:36.197Z,65.70
2018-02-23T07:01:05.610Z,65.60
2018-02-23T07:03:35.012Z,65.80
2018-02-23T07:06:04.431Z,66.00
2018-02-23T07:08:33.836Z,66.00
2018-02-23T07:11:03.258Z,66.10
2018-02-23T07:13:32.572Z,66.20
2018-02-23T07:16:01.985Z,66.50
2018-02-23T07:18:31.426Z,67.00
2018-02-23T07:21:00.927Z,67.60
2018-02-23T07:23:30.315Z,68.00
2018-02-23T07:25:59.540Z,68.30
2018-02-23T07:28:28.953Z,68.70
2018-02-23T07:30:58.389Z,69.00
2018-02-23T07:33:27.812Z,69.30
2018-02-23T07:35:57.241Z,69.20
2018-02-23T07:38:26.658Z,69.00
2018-02-23T07:40:56.079Z,68.60
2018-02-23T07:43:25.494Z,68.30
2018-02-23T07:45:54.941Z,68.00
2018-02-23T07:48:25.127Z,67.70
2018-02-23T07:50:54.363Z,67.70
2018-02-23T07:53:23.579Z,67.70
2018-02-23T07:55:53.776Z,67.70
2018-02-23T07:58:23.005Z,67.60
2018-02-23T08:00:52.617Z,67.70
2018-02-23T08:03:22.033Z,67.60
2018-02-23T08:05:51.261Z,67.70
2018-02-23T08:08:20.796Z,67.80
2018-02-23T08:10:51.424Z,67.60
2018-02-23T08:13:21.591Z,68.30
2018-02-23T08:15:51.027Z,67.50
2018-02-23T08:18:20.156Z,67.50
2018-02-23T08:20:49.579Z,67.40
2018-02-23T08:23:19.772Z,67.50
2018-02-23T08:25:49.203Z,67.50
2018-02-23T08:28:18.611Z,67.50
2018-02-23T08:30:48.033Z,67.60
2018-02-23T08:33:17.450Z,67.50
2018-02-23T08:35:46.846Z,67.60
2018-02-23T08:38:16.294Z,67.00
2018-02-23T08:40:45.407Z,67.10
2018-02-23T08:43:14.836Z,67.20
2018-02-23T08:45:44.248Z,67.00
2018-02-23T08:48:13.006Z,66.80
2018-02-23T08:50:42.414Z,66.80
2018-02-23T08:53:12.587Z,65.80
2018-02-23T08:55:42.056Z,65.70
2018-02-23T08:58:11.644Z,65.40
2018-02-23T09:00:48.215Z,64.40
2018-02-23T09:03:17.434Z,64.20
2018-02-23T09:05:46.885Z,63.60
2018-02-23T09:08:17.060Z,63.00
2018-02-23T09:10:46.470Z,62.80
2018-02-23T09:13:15.882Z,62.50
2018-02-23T09:15:45.304Z,62.90
2018-02-23T09:18:14.703Z,62.70
2018-02-23T09:20:44.123Z,63.20
2018-02-23T09:23:13.547Z,62.10
2018-02-23T09:25:42.768Z,61.90
2018-02-23T09:28:12.190Z,61.50
2018-02-23T09:30:41.598Z,61.20
2018-02-23T09:33:10.343Z,60.70
2018-02-23T09:35:39.631Z,60.40
2018-02-23T09:38:09.043Z,60.50
2018-02-23T09:40:38.456Z,61.00
2018-02-23T09:43:07.897Z,60.70
2018-02-23T09:45:38.069Z,61.00
2018-02-23T09:48:07.516Z,60.80
2018-02-23T09:50:36.923Z,59.80
2018-02-23T09:53:06.320Z,60.40
2018-02-23T09:55:35.740Z,60.00
2018-02-23T09:58:04.822Z,58.80
2018-02-23T10:00:34.240Z,58.50
2018-02-23T10:03:03.652Z,58.80
2018-02-23T10:05:33.137Z,57.80
2018-02-23T10:08:02.681Z,58.20
2018-02-23T10:10:32.100Z,58.00
2018-02-23T10:13:01.532Z,57.70
2018-02-23T10:15:30.744Z,58.20
2018-02-23T10:18:00.152Z,57.90
2018-02-23T10:20:29.307Z,58.10
2018-02-23T10:22:58.732Z,57.20
2018-02-23T10:25:28.132Z,56.30
2018-02-23T10:27:57.552Z,56.20
2018-02-23T10:30:26.958Z,55.20
2018-02-23T10:32:56.372Z,55.00
2018-02-23T10:35:25.616Z,54.10
2018-02-23T10:37:55.014Z,53.00
2018-02-23T10:40:24.249Z,53.30
2018-02-23T10:42:53.451Z,51.80
2018-02-23T10:45:22.678Z,51.40
2018-02-23T10:47:52.114Z,50.30
2018-02-23T10:50:22.298Z,49.60
2018-02-23T10:52:51.685Z,49.40
2018-02-23T10:55:21.085Z,50.30
2018-02-23T10:57:50.338Z,50.10
2018-02-23T11:00:19.581Z,50.10
2018-02-23T11:02:49.579Z,50.70
2018-02-23T11:05:18.822Z,50.40
2018-02-23T11:07:48.223Z,50.30
2018-02-23T11:10:17.667Z,49.30
2018-02-23T11:12:47.052Z,48.80
2018-02-23T11:15:16.452Z,48.30
2018-02-23T11:17:45.849Z,48.40
2018-02-23T11:20:15.076Z,47.90
2018-02-23T11:22:44.148Z,49.00
2018-02-23T11:25:13.579Z,47.80
2018-02-23T11:27:42.975Z,47.30
2018-02-23T11:30:12.396Z,46.50
2018-02-23T11:32:41.791Z,46.10
2018-02-23T11:35:11.993Z,46.70
2018-02-23T11:37:41.404Z,46.70
2018-02-23T11:40:10.860Z,46.70
2018-02-23T11:42:41.040Z,47.30
2018-02-23T11:45:10.432Z,47.20
2018-02-23T11:47:39.865Z,46.80
2018-02-23T11:50:09.256Z,46.20
2018-02-23T11:52:38.657Z,46.20
2018-02-23T11:55:08.087Z,45.20
2018-02-23T11:57:42.971Z,46.10
2018-02-23T12:00:12.032Z,45.80
2018-02-23T12:02:41.441Z,44.10
2018-02-23T12:05:10.840Z,44.40
2018-02-23T12:07:40.486Z,43.30
2018-02-23T12:10:09.876Z,43.30
2018-02-23T12:12:40.078Z,44.70
2018-02-23T12:15:09.684Z,44.60
2018-02-23T12:17:39.147Z,45.80
2018-02-23T12:20:09.342Z,45.50
2018-02-23T12:22:38.759Z,45.50
2018-02-23T12:25:08.152Z,44.20
2018-02-23T12:27:37.549Z,44.80
2018-02-23T12:30:06.964Z,44.30
2018-02-23T12:32:36.377Z,44.20
2018-02-23T12:35:05.779Z,43.90
2018-02-23T12:37:35.177Z,45.30
2018-02-23T12:40:05.481Z,45.30
2018-02-23T12:42:34.880Z,45.20
2018-02-23T12:45:04.124Z,45.00
2018-02-23T12:47:33.536Z,44.00
2018-02-23T12:50:02.940Z,44.60
2018-02-23T12:52:32.353Z,45.10
2018-02-23T12:55:01.479Z,44.10
2018-02-23T12:57:30.624Z,43.70
2018-02-23T13:00:01.071Z,43.10
2018-02-23T13:02:31.263Z,43.70
2018-02-23T13:05:00.337Z,43.60
2018-02-23T13:07:29.751Z,44.10
2018-02-23T13:09:59.940Z,44.60
2018-02-23T13:12:29.363Z,44.70
2018-02-23T13:15:04.316Z,43.50
2018-02-23T13:17:34.479Z,42.60
2018-02-23T13:20:03.897Z,42.20
2018-02-23T13:22:33.304Z,42.10
2018-02-23T13:25:03.669Z,43.00
2018-02-23T13:27:33.057Z,42.80
2018-02-23T13:30:02.468Z,42.50
2018-02-23T13:32:31.683Z,42.50
2018-02-23T13:35:01.097Z,42.40
2018-02-23T13:37:30.504Z,42.70
2018-02-23T13:40:00.716Z,42.20
2018-02-23T13:42:30.125Z,42.20
2018-02-23T13:44:59.943Z,41.70
2018-02-23T13:47:29.390Z,42.60
2018-02-23T13:49:58.784Z,42.20
2018-02-23T13:52:28.189Z,41.70
2018-02-23T13:54:57.403Z,42.70
2018-02-23T13:57:27.016Z,41.60
2018-02-23T13:59:56.418Z,41.40
2018-02-23T14:02:25.849Z,40.70
2018-02-23T14:04:55.237Z,40.50
2018-02-23T14:10:22.395Z,41.40
2018-02-23T14:12:51.659Z,42.70
2018-02-23T14:15:20.878Z,41.10
2018-02-23T14:17:50.313Z,41.60
2018-02-23T14:20:19.909Z,41.60
2018-02-23T14:22:49.334Z,42.10
2018-02-23T14:25:18.748Z,42.40
2018-02-23T14:27:48.153Z,42.50
2018-02-23T14:30:17.569Z,42.10
2018-02-23T14:32:46.960Z,42.40
2018-02-23T14:35:16.388Z,43.10
2018-02-23T14:37:45.806Z,42.60
2018-02-23T14:40:15.022Z,42.40
2018-02-23T14:42:44.416Z,43.00
2018-02-23T14:45:13.824Z,42.90
2018-02-23T14:47:43.341Z,42.10
2018-02-23T14:50:23.706Z,42.20
2018-02-23T14:52:52.828Z,42.70
2018-02-23T14:55:22.251Z,43.00
2018-02-23T14:57:51.677Z,42.20
2018-02-23T15:00:21.585Z,42.60
2018-02-23T15:02:50.996Z,42.40
2018-02-23T15:05:20.416Z,41.60
2018-02-23T15:07:49.831Z,40.50
2018-02-23T15:10:19.236Z,40.90
2018-02-23T15:12:48.636Z,40.50
2018-02-23T15:15:18.044Z,41.10
2018-02-23T15:17:47.444Z,41.70
2018-02-23T15:20:17.718Z,39.70
2018-02-23T15:22:47.118Z,39.70
2018-02-23T15:25:16.518Z,40.00
2018-02-23T15:27:46.692Z,41.20
2018-02-23T15:30:27.304Z,41.20
2018-02-23T15:32:56.442Z,41.70
2018-02-23T15:35:25.857Z,42.30
2018-02-23T15:37:54.916Z,42.30
2018-02-23T15:40:24.382Z,42.00
2018-02-23T15:42:53.808Z,42.40
2018-02-23T15:45:23.194Z,42.20
2018-02-23T15:50:57.224Z,41.90
2018-02-23T15:53:26.452Z,41.60
2018-02-23T15:55:55.371Z,42.10
2018-02-23T16:01:22.044Z,41.20
2018-02-23T16:03:52.013Z,42.10
2018-02-23T16:06:21.232Z,42.00
2018-02-23T16:08:50.439Z,42.10
2018-02-23T16:11:19.667Z,42.20
2018-02-23T16:13:48.892Z,42.10
2018-02-23T16:16:18.088Z,42.50
2018-02-23T16:18:47.308Z,43.00
2018-02-23T16:21:16.712Z,43.20
2018-02-23T16:23:46.134Z,43.50
2018-02-23T16:26:15.541Z,43.00
2018-02-23T16:28:44.934Z,42.50
2018-02-23T16:31:14.333Z,42.60
2018-02-23T16:33:43.760Z,42.10
2018-02-23T16:36:13.362Z,42.70
2018-02-23T16:38:42.800Z,42.80
2018-02-23T16:41:12.400Z,43.00
2018-02-23T16:43:41.851Z,43.00
2018-02-23T16:46:11.240Z,43.00
2018-02-23T16:48:40.661Z,43.10
2018-02-23T16:51:10.114Z,42.90
2018-02-23T16:53:39.668Z,43.60
2018-02-23T16:56:09.083Z,43.60
2018-02-23T16:58:39.260Z,44.00
2018-02-23T17:01:08.672Z,43.90
2018-02-23T17:03:38.061Z,44.00
2018-02-23T17:06:07.489Z,44.10
2018-02-23T17:08:36.603Z,44.30
2018-02-23T17:11:06.005Z,44.30
2018-02-23T17:13:35.075Z,44.40
2018-02-23T17:16:05.257Z,44.80
2018-02-23T17:18:34.668Z,44.80
2018-02-23T17:21:04.080Z,44.90
2018-02-23T17:23:33.498Z,45.20
2018-02-23T17:26:02.888Z,45.40
2018-02-23T17:28:32.279Z,45.40
2018-02-23T17:31:02.466Z,45.80
2018-02-23T17:33:31.876Z,45.80
2018-02-23T17:36:01.273Z,45.80
2018-02-23T17:38:30.411Z,45.70
2018-02-23T17:40:59.725Z,46.00
2018-02-23T17:43:29.134Z,46.10
2018-02-23T17:45:58.562Z,46.10
2018-02-23T17:48:28.060Z,46.10
2018-02-23T17:50:57.271Z,46.30
2018-02-23T17:53:26.640Z,46.40
2018-02-23T17:55:56.815Z,46.20
2018-02-23T17:58:25.944Z,46.20
2018-02-23T18:00:55.339Z,46.50
2018-02-23T18:03:24.420Z,46.50
2018-02-23T18:05:53.821Z,46.70
2018-02-23T18:08:24.011Z,46.80
2018-02-23T18:10:53.396Z,46.70
2018-02-23T18:13:22.793Z,46.70
2018-02-23T18:15:51.925Z,46.50
2018-02-23T18:18:21.444Z,46.80
2018-02-23T18:20:50.868Z,46.90
2018-02-23T18:23:20.300Z,47.00
2018-02-23T18:25:49.727Z,47.10
2018-02-23T18:28:19.327Z,47.00
2018-02-23T18:30:48.736Z,47.10
2018-02-23T18:33:18.133Z,47.20
2018-02-23T18:35:47.564Z,47.20
2018-02-23T18:38:16.780Z,47.40
2018-02-23T18:40:45.912Z,47.40
2018-02-23T18:43:15.304Z,47.10
2018-02-23T18:45:44.713Z,47.60
2018-02-23T18:48:14.102Z,47.80
2018-02-23T18:50:43.511Z,47.60
2018-02-23T18:53:12.939Z,47.70
2018-02-23T18:55:42.346Z,47.80
2018-02-23T18:58:11.737Z,47.90
2018-02-23T19:00:41.916Z,48.20
2018-02-23T19:03:11.308Z,48.10
2018-02-23T19:05:40.533Z,48.20
2018-02-23T19:08:09.734Z,48.30
2018-02-23T19:10:39.154Z,48.20
2018-02-23T19:13:08.376Z,48.40
2018-02-23T19:15:37.591Z,48.50
2018-02-23T19:18:07.000Z,48.50
2018-02-23T19:20:36.411Z,48.60
2018-02-23T19:23:05.816Z,48.60
2018-02-23T19:25:35.544Z,48.80
2018-02-23T19:28:04.745Z,48.70
2018-02-23T19:30:34.991Z,48.90
2018-02-23T19:33:04.495Z,48.90
2018-02-23T19:35:33.697Z,48.90
2018-02-23T19:38:03.109Z,48.90
2018-02-23T19:40:32.248Z,49.00
2018-02-23T19:43:01.657Z,49.10
2018-02-23T19:45:31.069Z,49.10
2018-02-23T19:48:00.486Z,49.10
2018-02-23T19:50:29.903Z,49.20
2018-02-23T19:52:59.121Z,49.20
2018-02-23T19:55:28.533Z,49.40
2018-02-23T19:57:57.954Z,49.30
2018-02-23T20:00:27.400Z,49.40
2018-02-23T20:02:56.842Z,49.40
2018-02-23T20:05:26.857Z,49.40
2018-02-23T20:07:56.276Z,49.50
2018-02-23T20:10:25.683Z,49.50
2018-02-23T20:12:55.089Z,49.50
2018-02-23T20:15:24.594Z,49.60
2018-02-23T20:17:54.049Z,49.70
2018-02-23T20:20:23.624Z,49.60
2018-02-23T20:22:53.035Z,49.60
2018-02-23T20:25:22.477Z,49.60
2018-02-23T20:27:51.928Z,49.60
2018-02-23T20:30:21.108Z,49.70
2018-02-23T20:32:52.033Z,49.60
2018-02-23T20:35:21.477Z,49.50
2018-02-23T20:37:51.402Z,49.60
2018-02-23T20:40:20.844Z,49.70
2018-02-23T20:42:50.421Z,49.70
2018-02-23T20:45:19.838Z,49.70
2018-02-23T20:47:49.244Z,49.70
2018-02-23T20:50:18.679Z,49.80
2018-02-23T20:52:48.141Z,49.80
2018-02-23T20:55:18.309Z,50.00
2018-02-23T20:57:47.716Z,49.90
2018-02-23T21:00:17.118Z,49.90
2018-02-23T21:02:46.534Z,50.00
2018-02-23T21:05:15.936Z,50.00
2018-02-23T21:07:46.132Z,50.30
2018-02-23T21:10:17.089Z,50.40
2018-02-23T21:12:46.389Z,50.30
2018-02-23T21:15:17.304Z,50.50
2018-02-23T21:17:46.736Z,50.50
2018-02-23T21:20:16.149Z,50.50
2018-02-23T21:22:45.216Z,50.60
2018-02-23T21:25:15.400Z,50.80
2018-02-23T21:27:44.810Z,50.70
2018-02-23T21:30:14.427Z,50.80
2018-02-23T21:32:43.853Z,50.80
2018-02-23T21:35:13.254Z,50.90
2018-02-23T21:37:42.676Z,50.90
2018-02-23T21:40:12.093Z,51.50
2018-02-23T21:42:41.234Z,51.10
2018-02-23T21:45:11.126Z,51.10
2018-02-23T21:47:40.281Z,51.00
2018-02-23T21:50:09.668Z,51.10
2018-02-23T21:52:39.082Z,51.10
2018-02-23T21:55:08.312Z,51.10
2018-02-23T21:57:38.034Z,51.20
2018-02-23T22:00:07.249Z,51.20
2018-02-23T22:02:36.648Z,51.30
2018-02-23T22:05:06.360Z,51.20
2018-02-23T22:07:35.791Z,51.10
2018-02-23T22:10:05.049Z,51.10
2018-02-23T22:12:34.452Z,51.20
2018-02-23T22:15:04.492Z,51.10
2018-02-23T22:17:34.656Z,51.10
2018-02-23T22:20:03.802Z,51.10
2018-02-23T22:22:32.539Z,51.00
2018-02-23T22:25:02.720Z,51.10
2018-02-23T22:27:32.132Z,51.00
2018-02-23T22:30:01.299Z,51.00
2018-02-23T22:32:30.252Z,50.80
2018-02-23T22:34:59.371Z,50.90
2018-02-23T22:37:28.788Z,50.80
2018-02-23T22:39:58.191Z,50.70
2018-02-23T22:42:27.635Z,50.80
2018-02-23T22:44:58.530Z,50.70
2018-02-23T22:47:27.937Z,50.70
2018-02-23T22:49:57.332Z,50.60
2018-02-23T22:52:26.443Z,50.50
2018-02-23T22:54:56.716Z,50.20
2018-02-23T22:57:26.125Z,50.20
2018-02-23T22:59:55.541Z,50.40
2018-02-23T23:02:24.962Z,50.30
2018-02-23T23:04:54.365Z,50.30
2018-02-23T23:07:23.770Z,50.40
2018-02-23T23:09:53.227Z,50.30
2018-02-23T23:12:22.641Z,50.20
2018-02-23T23:14:52.045Z,50.10
2018-02-23T23:17:22.196Z,50.00
2018-02-23T23:19:51.592Z,49.90
2018-02-23T23:22:20.741Z,49.90
2018-02-23T23:24:50.152Z,49.90
2018-02-23T23:27:19.565Z,49.70
2018-02-23T23:29:48.969Z,49.50
2018-02-23T23:32:18.393Z,49.40
2018-02-23T23:34:47.801Z,49.60
2018-02-23T23:37:17.680Z,49.50
2018-02-23T23:39:47.095Z,49.10
2018-02-23T23:42:16.512Z,49.00
2018-02-23T23:44:45.916Z,49.00
2018-02-23T23:47:15.325Z,48.80
2018-02-23T23:49:44.732Z,48.80
2018-02-23T23:52:14.908Z,48.60
2018-02-23T23:54:44.314Z,48.50
2018-02-23T23:57:13.733Z,48.30
2018-02-23T23:59:43.136Z,48.20
